createdAt,value
2023-05-20T00:01:12.361Z,54.60
2023-05-20T00:03:40.669Z,54.70
2023-05-20T00:06:09.070Z,54.80
2023-05-20T00:08:37.263Z,54.90
2023-05-20T00:11:05.421Z,55.00
2023-05-20T00:13:36.072Z,54.90
2023-05-20T00:16:04.398Z,55.20
2023-05-20T00:18:32.796Z,55.10
2023-05-20T00:21:00.953Z,55.20
2023-05-20T00:23:29.091Z,55.20
2023-05-20T00:25:59.835Z,55.30
2023-05-20T00:28:28.798Z,55.40
2023-05-20T00:30:58.466Z,55.60
2023-05-20T00:33:26.631Z,55.80
2023-05-20T00:35:54.758Z,55.80
2023-05-20T00:38:22.933Z,55.90
2023-05-20T00:40:51.107Z,56.00
2023-05-20T00:43:20.475Z,56.10
2023-05-20T00:45:48.825Z,56.20
2023-05-20T00:48:18.426Z,56.50
2023-05-20T00:50:46.634Z,56.40
2023-05-20T00:53:15.498Z,56.30
2023-05-20T00:55:43.764Z,56.50
2023-05-20T00:58:12.577Z,56.70
2023-05-20T01:00:40.844Z,56.60
2023-05-20T01:03:09.477Z,56.80
2023-05-20T01:05:41.455Z,56.80
2023-05-20T01:08:11.734Z,57.00
2023-05-20T01:10:43.730Z,56.90
2023-05-20T01:13:16.732Z,57.30
2023-05-20T01:15:48.554Z,57.30
2023-05-20T01:18:18.572Z,57.20
2023-05-20T01:20:50.975Z,57.10
2023-05-20T01:23:20.466Z,57.40
2023-05-20T01:25:48.606Z,57.20
2023-05-20T01:28:18.032Z,57.00
2023-05-20T01:30:51.973Z,57.30
2023-05-20T01:33:23.387Z,57.60
2023-05-20T01:35:51.702Z,57.70
2023-05-20T01:38:21.724Z,57.70
2023-05-20T01:40:50.841Z,58.00
2023-05-20T01:43:19.615Z,58.00
2023-05-20T01:45:48.220Z,58.20
2023-05-20T01:48:16.888Z,58.30
2023-05-20T01:50:45.064Z,58.30
2023-05-20T01:53:13.419Z,58.40
2023-05-20T01:55:42.893Z,58.50
2023-05-20T01:58:11.081Z,58.90
2023-05-20T02:00:39.227Z,58.70
2023-05-20T02:03:07.424Z,58.80
2023-05-20T02:05:35.819Z,58.90
2023-05-20T02:08:04.280Z,59.10
2023-05-20T02:10:32.390Z,59.10
2023-05-20T02:13:01.901Z,59.40
2023-05-20T02:15:30.042Z,59.50
2023-05-20T02:17:58.678Z,59.40
2023-05-20T02:20:26.966Z,59.70
2023-05-20T02:22:55.435Z,59.60
2023-05-20T02:25:23.512Z,59.70
2023-05-20T02:27:51.628Z,59.80
2023-05-20T02:30:21.387Z,60.50
2023-05-20T02:32:49.564Z,60.00
2023-05-20T02:35:17.900Z,59.90
2023-05-20T02:37:48.345Z,59.90
2023-05-20T02:40:16.712Z,59.90
2023-05-20T02:42:45.028Z,59.90
2023-05-20T02:45:13.192Z,59.90
2023-05-20T02:47:42.717Z,60.00
2023-05-20T02:50:11.360Z,60.30
2023-05-20T02:52:40.011Z,60.10
2023-05-20T02:55:08.941Z,60.30
2023-05-20T02:57:38.351Z,60.30
2023-05-20T03:00:09.188Z,60.40
2023-05-20T03:02:37.724Z,60.70
2023-05-20T03:05:08.209Z,60.60
2023-05-20T03:07:37.216Z,61.20
2023-05-20T03:10:06.646Z,61.00
2023-05-20T03:12:34.831Z,60.90
2023-05-20T03:15:03.717Z,60.90
2023-05-20T03:17:31.988Z,61.10
2023-05-20T03:20:01.329Z,61.10
2023-05-20T03:22:30.932Z,61.10
2023-05-20T03:25:00.453Z,61.30
2023-05-20T03:27:28.559Z,61.00
2023-05-20T03:29:56.630Z,61.20
2023-05-20T03:32:24.773Z,61.20
2023-05-20T03:34:52.880Z,61.20
2023-05-20T03:37:21.010Z,61.20
2023-05-20T03:39:50.497Z,61.30
2023-05-20T03:42:18.734Z,61.60
2023-05-20T03:44:46.893Z,61.30
2023-05-20T03:47:15.172Z,61.40
2023-05-20T03:49:43.311Z,61.50
2023-05-20T03:52:11.406Z,61.50
2023-05-20T03:54:39.510Z,61.60
2023-05-20T03:57:10.506Z,61.60
2023-05-20T03:59:38.745Z,61.80
2023-05-20T04:02:07.408Z,61.60
2023-05-20T04:04:36.194Z,61.70
2023-05-20T04:07:05.060Z,61.80
2023-05-20T04:09:33.212Z,62.00
2023-05-20T04:12:01.320Z,62.00
2023-05-20T04:14:32.638Z,61.90
2023-05-20T04:17:02.653Z,62.00
2023-05-20T04:19:30.883Z,61.90
2023-05-20T04:21:59.015Z,61.80
2023-05-20T04:24:27.886Z,61.90
2023-05-20T04:26:56.042Z,62.10
2023-05-20T04:29:24.229Z,62.00
2023-05-20T04:31:53.856Z,62.10
2023-05-20T04:34:27.043Z,62.60
2023-05-20T04:36:55.274Z,62.40
2023-05-20T04:39:23.355Z,62.70
2023-05-20T04:41:54.742Z,62.90
2023-05-20T04:44:24.727Z,63.10
2023-05-20T04:46:54.270Z,63.40
2023-05-20T04:49:22.468Z,63.50
2023-05-20T04:51:51.922Z,63.40
2023-05-20T04:54:20.338Z,63.70
2023-05-20T04:56:48.761Z,63.80
2023-05-20T04:59:16.847Z,63.90
2023-05-20T05:01:45.132Z,63.90
2023-05-20T05:04:14.661Z,64.40
2023-05-20T05:06:42.859Z,64.20
2023-05-20T05:09:11.035Z,64.20
2023-05-20T05:11:42.181Z,64.20
2023-05-20T05:14:10.346Z,64.50
2023-05-20T05:16:38.469Z,64.50
2023-05-20T05:19:07.309Z,65.00
2023-05-20T05:21:36.897Z,64.70
2023-05-20T05:24:05.141Z,65.00
2023-05-20T05:26:33.262Z,65.00
2023-05-20T05:29:01.376Z,65.10
2023-05-20T05:31:29.536Z,65.20
2023-05-20T05:33:57.620Z,65.30
2023-05-20T05:36:26.608Z,65.60
2023-05-20T05:38:56.086Z,65.80
2023-05-20T05:41:24.175Z,65.90
2023-05-20T05:43:52.258Z,66.20
2023-05-20T05:46:20.522Z,65.90
2023-05-20T05:48:50.914Z,66.50
2023-05-20T05:51:19.163Z,66.90
2023-05-20T05:53:47.326Z,66.40
2023-05-20T05:56:16.879Z,66.60
2023-05-20T05:58:45.870Z,67.20
2023-05-20T06:01:14.053Z,66.80
2023-05-20T06:03:42.268Z,67.40
2023-05-20T06:06:10.409Z,67.60
2023-05-20T06:08:38.687Z,67.40
2023-05-20T06:11:06.936Z,67.30
2023-05-20T06:13:37.358Z,67.40
2023-05-20T06:16:06.097Z,67.80
2023-05-20T06:18:34.253Z,67.60
2023-05-20T06:21:02.397Z,67.70
2023-05-20T06:23:30.624Z,68.10
2023-05-20T06:25:59.811Z,68.10
2023-05-20T06:28:28.063Z,68.10
2023-05-20T06:30:58.337Z,67.90
2023-05-20T06:33:27.430Z,68.10
2023-05-20T06:35:56.871Z,68.30
2023-05-20T06:38:24.998Z,68.10
2023-05-20T06:40:53.133Z,68.20
2023-05-20T06:43:21.263Z,68.10
2023-05-20T06:45:50.746Z,68.20
2023-05-20T06:48:20.385Z,68.40
2023-05-20T06:50:48.506Z,68.30
2023-05-20T06:53:17.013Z,68.10
2023-05-20T06:55:45.118Z,68.00
2023-05-20T06:58:13.237Z,68.00
2023-05-20T07:00:41.623Z,67.90
2023-05-20T07:03:11.749Z,67.90
2023-05-20T07:05:44.341Z,67.90
2023-05-20T07:08:12.503Z,68.30
2023-05-20T07:10:41.034Z,67.80
2023-05-20T07:13:09.256Z,67.70
2023-05-20T07:15:37.748Z,67.80
2023-05-20T07:18:05.910Z,67.90
2023-05-20T07:20:34.088Z,67.90
2023-05-20T07:23:04.216Z,67.60
2023-05-20T07:25:32.435Z,67.40
2023-05-20T07:28:00.715Z,67.40
2023-05-20T07:30:29.380Z,67.40
2023-05-20T07:32:57.511Z,67.20
2023-05-20T07:35:25.648Z,67.50
2023-05-20T07:37:53.766Z,67.30
2023-05-20T07:40:23.460Z,66.90
2023-05-20T07:42:51.558Z,66.90
2023-05-20T07:45:20.195Z,66.90
2023-05-20T07:47:48.406Z,66.80
2023-05-20T07:50:17.039Z,66.80
2023-05-20T07:52:56.035Z,67.10
2023-05-20T07:55:26.522Z,66.80
2023-05-20T07:57:54.851Z,66.60
2023-05-20T08:00:23.145Z,66.40
2023-05-20T08:02:51.430Z,66.40
2023-05-20T08:05:19.802Z,66.40
2023-05-20T08:07:47.940Z,66.60
2023-05-20T08:10:16.131Z,66.40
2023-05-20T08:12:45.649Z,66.40
2023-05-20T08:15:14.134Z,66.40
2023-05-20T08:17:42.315Z,66.40
2023-05-20T08:20:12.779Z,66.20
2023-05-20T08:22:41.429Z,66.60
2023-05-20T08:25:10.780Z,66.40
2023-05-20T08:27:38.928Z,66.60
2023-05-20T08:30:10.059Z,66.70
2023-05-20T08:32:38.514Z,66.80
2023-05-20T08:35:08.123Z,66.80
2023-05-20T08:37:36.548Z,67.00
2023-05-20T08:40:06.573Z,66.70
2023-05-20T08:42:34.809Z,67.00
2023-05-20T08:45:04.129Z,66.90
2023-05-20T08:47:33.913Z,67.20
2023-05-20T08:50:02.145Z,66.50
2023-05-20T08:52:35.076Z,65.80
2023-05-20T08:55:04.292Z,65.10
2023-05-20T08:57:34.042Z,64.60
2023-05-20T09:00:02.233Z,64.60
2023-05-20T09:02:30.440Z,64.40
2023-05-20T09:05:00.004Z,64.20
2023-05-20T09:07:28.924Z,64.30
2023-05-20T09:09:57.038Z,64.50
2023-05-20T09:12:25.432Z,64.50
2023-05-20T09:14:53.548Z,64.50
2023-05-20T09:17:23.075Z,64.50
2023-05-20T09:19:51.825Z,64.30
2023-05-20T09:22:25.122Z,63.80
2023-05-20T09:24:53.282Z,62.90
2023-05-20T09:27:21.858Z,62.90
2023-05-20T09:29:49.973Z,62.40
2023-05-20T09:32:18.486Z,62.20
2023-05-20T09:34:48.698Z,61.90
2023-05-20T09:37:19.493Z,61.60
2023-05-20T09:39:59.601Z,62.00
2023-05-20T09:42:29.582Z,61.70
2023-05-20T09:44:59.191Z,61.40
2023-05-20T09:47:28.178Z,61.30
2023-05-20T09:49:56.647Z,61.20
2023-05-20T09:52:25.677Z,60.90
2023-05-20T09:54:57.422Z,61.30
2023-05-20T09:57:26.507Z,61.40
2023-05-20T09:59:55.192Z,61.60
2023-05-20T10:02:23.438Z,61.60
2023-05-20T10:04:54.411Z,61.50
2023-05-20T10:07:42.502Z,61.60
2023-05-20T10:10:23.649Z,61.90
2023-05-20T10:13:00.178Z,62.00
2023-05-20T10:15:42.848Z,62.00
2023-05-20T10:18:20.246Z,62.20
2023-05-20T10:20:48.929Z,62.50
2023-05-20T10:23:29.186Z,62.40
2023-05-20T10:25:59.783Z,62.30
2023-05-20T10:28:32.935Z,62.00
2023-05-20T10:31:01.677Z,62.40
2023-05-20T10:33:30.673Z,61.80
2023-05-20T10:36:01.160Z,61.80
2023-05-20T10:38:29.286Z,61.90
2023-05-20T10:41:11.252Z,61.70
2023-05-20T10:43:39.400Z,61.80
2023-05-20T10:46:13.702Z,61.70
2023-05-20T10:48:49.842Z,62.00
2023-05-20T10:51:18.062Z,62.10
2023-05-20T10:53:47.806Z,61.80
2023-05-20T10:56:21.467Z,62.00
2023-05-20T10:58:49.683Z,62.40
2023-05-20T11:01:19.146Z,62.00
2023-05-20T11:03:48.253Z,62.10
2023-05-20T11:06:18.850Z,62.10
2023-05-20T11:08:47.628Z,62.10
2023-05-20T11:11:16.482Z,62.10
2023-05-20T11:13:47.078Z,62.20
2023-05-20T11:16:15.261Z,62.20
2023-05-20T11:18:43.615Z,62.30
2023-05-20T11:21:12.260Z,62.70
2023-05-20T11:23:40.867Z,63.00
2023-05-20T11:26:09.162Z,62.80
2023-05-20T11:28:37.729Z,62.70
2023-05-20T11:31:07.857Z,62.80
2023-05-20T11:33:35.963Z,63.00
2023-05-20T11:36:08.622Z,62.90
2023-05-20T11:38:43.013Z,62.30
2023-05-20T11:41:12.061Z,62.30
2023-05-20T11:43:42.744Z,62.30
2023-05-20T11:46:12.474Z,62.50
2023-05-20T11:48:42.075Z,62.00
2023-05-20T11:51:10.266Z,61.40
2023-05-20T11:53:42.314Z,61.50
2023-05-20T11:56:10.629Z,62.20
2023-05-20T11:58:38.736Z,62.80
2023-05-20T12:01:20.935Z,61.10
2023-05-20T12:03:51.664Z,60.80
2023-05-20T12:06:20.309Z,60.30
2023-05-20T12:08:49.563Z,60.00
2023-05-20T12:11:17.764Z,60.10
2023-05-20T12:13:45.885Z,60.60
2023-05-20T12:16:14.048Z,60.10
2023-05-20T12:18:42.358Z,59.80
2023-05-20T12:21:12.338Z,60.00
2023-05-20T12:23:40.431Z,60.00
2023-05-20T12:26:08.657Z,60.40
2023-05-20T12:28:40.340Z,61.00
2023-05-20T12:31:08.614Z,60.50
2023-05-20T12:33:36.851Z,61.20
2023-05-20T12:36:05.307Z,61.40
2023-05-20T12:38:34.807Z,61.50
2023-05-20T12:41:03.086Z,60.10
2023-05-20T12:43:31.245Z,59.40
2023-05-20T12:45:59.445Z,58.80
2023-05-20T12:48:27.680Z,58.60
2023-05-20T12:50:55.806Z,57.60
2023-05-20T12:53:23.934Z,57.40
2023-05-20T12:55:53.717Z,57.60
2023-05-20T12:58:21.955Z,58.00
2023-05-20T13:00:50.281Z,58.10
2023-05-20T13:03:18.595Z,58.00
2023-05-20T13:05:46.971Z,57.40
2023-05-20T13:08:15.179Z,56.60
2023-05-20T13:10:43.408Z,56.70
2023-05-20T13:13:13.987Z,57.40
2023-05-20T13:15:42.497Z,57.00
2023-05-20T13:18:11.140Z,56.50
2023-05-20T13:20:39.380Z,56.40
2023-05-20T13:23:08.159Z,56.10
2023-05-20T13:25:36.784Z,56.20
2023-05-20T13:28:06.807Z,56.10
2023-05-20T13:30:36.757Z,56.20
2023-05-20T13:33:06.613Z,56.40
2023-05-20T13:35:35.721Z,56.80
2023-05-20T13:38:04.007Z,56.80
2023-05-20T13:40:32.205Z,56.80
2023-05-20T13:43:00.436Z,56.40
2023-05-20T13:45:29.667Z,56.00
2023-05-20T13:47:59.384Z,55.30
2023-05-20T13:50:27.697Z,54.80
2023-05-20T13:52:55.846Z,55.10
2023-05-20T13:55:24.873Z,55.20
2023-05-20T13:57:54.352Z,55.00
2023-05-20T14:00:22.765Z,53.40
2023-05-20T14:02:51.069Z,53.30
2023-05-20T14:05:20.651Z,53.00
2023-05-20T14:07:48.726Z,53.20
2023-05-20T14:10:16.907Z,53.30
2023-05-20T14:12:48.178Z,53.40
2023-05-20T14:15:16.610Z,53.00
2023-05-20T14:17:44.825Z,53.00
2023-05-20T14:20:13.538Z,53.00
2023-05-20T14:22:43.314Z,53.50
2023-05-20T14:25:11.420Z,53.50
2023-05-20T14:27:39.533Z,53.30
2023-05-20T14:30:09.178Z,53.80
2023-05-20T14:32:37.408Z,54.20
2023-05-20T14:35:06.168Z,54.50
2023-05-20T14:37:34.270Z,54.00
2023-05-20T14:40:08.272Z,54.30
2023-05-20T14:42:37.156Z,54.40
2023-05-20T14:45:05.967Z,54.50
2023-05-20T14:47:34.283Z,54.20
2023-05-20T14:50:02.587Z,54.30
2023-05-20T14:52:30.779Z,54.50
2023-05-20T14:54:58.910Z,54.60
2023-05-20T14:57:28.454Z,54.40
2023-05-20T14:59:56.771Z,54.60
2023-05-20T15:02:24.908Z,54.60
2023-05-20T15:04:53.014Z,54.60
2023-05-20T15:07:21.387Z,54.50
2023-05-20T15:09:50.021Z,54.50
2023-05-20T15:12:18.140Z,54.20
2023-05-20T15:14:47.627Z,54.20
2023-05-20T15:17:16.357Z,54.00
2023-05-20T15:19:44.469Z,54.10
2023-05-20T15:22:12.599Z,54.10
2023-05-20T15:24:40.754Z,54.10
2023-05-20T15:27:09.165Z,54.30
2023-05-20T15:29:38.914Z,54.40
2023-05-20T15:32:10.505Z,54.10
2023-05-20T15:34:38.875Z,53.80
2023-05-20T15:37:07.195Z,54.10
2023-05-20T15:39:38.621Z,54.20
2023-05-20T15:42:07.578Z,54.60
2023-05-20T15:44:36.543Z,54.40
2023-05-20T15:47:05.795Z,54.50
2023-05-20T15:49:35.404Z,54.50
2023-05-20T15:52:04.410Z,54.60
2023-05-20T15:54:33.009Z,54.80
2023-05-20T15:57:01.193Z,54.90
2023-05-20T15:59:29.347Z,54.90
2023-05-20T16:01:57.484Z,55.20
2023-05-20T16:04:25.866Z,55.40
2023-05-20T16:06:55.482Z,55.40
2023-05-20T16:09:23.689Z,55.40
2023-05-20T16:11:51.840Z,55.70
2023-05-20T16:14:19.947Z,55.70
2023-05-20T16:16:48.231Z,55.90
2023-05-20T16:19:16.937Z,56.00
2023-05-20T16:21:46.062Z,56.40
2023-05-20T16:24:16.497Z,56.40
2023-05-20T16:26:44.608Z,56.70
2023-05-20T16:29:14.295Z,56.40
2023-05-20T16:31:46.471Z,56.50
2023-05-20T16:34:15.089Z,56.60
2023-05-20T16:36:45.079Z,56.40
2023-05-20T16:39:13.398Z,56.60
2023-05-20T16:41:43.302Z,56.90
2023-05-20T16:44:11.569Z,57.30
2023-05-20T16:46:40.168Z,57.40
2023-05-20T16:49:08.528Z,57.70
2023-05-20T16:51:36.685Z,57.80
2023-05-20T16:54:04.976Z,58.00
2023-05-20T16:56:33.450Z,58.10
2023-05-20T16:59:02.962Z,58.30
2023-05-20T17:01:31.155Z,58.50
2023-05-20T17:03:59.514Z,58.70
2023-05-20T17:06:27.710Z,58.90
2023-05-20T17:08:56.627Z,59.00
2023-05-20T17:11:24.779Z,59.00
2023-05-20T17:13:53.111Z,59.10
2023-05-20T17:16:22.683Z,59.10
2023-05-20T17:18:50.814Z,59.20
2023-05-20T17:21:20.411Z,59.40
2023-05-20T17:23:48.535Z,59.50
2023-05-20T17:26:17.132Z,59.70
2023-05-20T17:28:46.457Z,59.80
2023-05-20T17:31:15.104Z,59.80
2023-05-20T17:33:44.678Z,59.90
2023-05-20T17:36:13.743Z,60.20
2023-05-20T17:38:41.846Z,60.30
2023-05-20T17:41:12.541Z,60.60
2023-05-20T17:43:40.730Z,60.80
2023-05-20T17:46:08.955Z,60.70
2023-05-20T17:48:37.106Z,60.80
2023-05-20T17:51:07.160Z,61.20
2023-05-20T17:53:35.383Z,61.20
2023-05-20T17:56:03.513Z,61.20
2023-05-20T17:58:33.846Z,61.30
2023-05-20T18:01:02.310Z,61.40
2023-05-20T18:03:30.607Z,61.50
2023-05-20T18:05:58.776Z,61.60
2023-05-20T18:08:28.401Z,61.50
2023-05-20T18:10:56.734Z,61.80
2023-05-20T18:13:25.167Z,61.80
2023-05-20T18:15:53.318Z,61.80
2023-05-20T18:18:21.518Z,61.90
2023-05-20T18:20:49.684Z,61.80
2023-05-20T18:23:18.296Z,61.80
2023-05-20T18:25:48.210Z,61.80
2023-05-20T18:28:16.602Z,62.00
2023-05-20T18:30:44.774Z,62.00
2023-05-20T18:33:13.719Z,62.00
2023-05-20T18:35:41.987Z,62.10
2023-05-20T18:38:10.087Z,62.20
2023-05-20T18:40:38.320Z,62.50
2023-05-20T18:43:08.092Z,62.70
2023-05-20T18:45:36.298Z,62.80
2023-05-20T18:48:05.182Z,62.80
2023-05-20T18:50:36.169Z,62.90
2023-05-20T18:53:04.648Z,63.10
2023-05-20T18:55:32.771Z,63.30
2023-05-20T18:58:00.915Z,63.20
2023-05-20T19:00:30.432Z,63.30
2023-05-20T19:02:59.008Z,63.60
2023-05-20T19:05:27.217Z,63.50
2023-05-20T19:07:55.498Z,63.60
2023-05-20T19:10:23.796Z,63.70
2023-05-20T19:12:51.918Z,63.70
2023-05-20T19:15:20.021Z,63.80
2023-05-20T19:17:49.687Z,63.90
2023-05-20T19:20:17.969Z,64.10
2023-05-20T19:22:46.191Z,63.90
2023-05-20T19:25:14.344Z,63.90
2023-05-20T19:27:42.536Z,63.90
2023-05-20T19:30:11.486Z,64.10
2023-05-20T19:32:40.221Z,64.30
2023-05-20T19:35:10.565Z,64.50
2023-05-20T19:37:38.727Z,64.70
2023-05-20T19:40:08.067Z,64.80
2023-05-20T19:42:36.396Z,65.00
2023-05-20T19:45:05.371Z,65.10
2023-05-20T19:47:33.519Z,65.20
2023-05-20T19:50:01.675Z,65.40
2023-05-20T19:52:32.161Z,65.20
2023-05-20T19:55:01.420Z,65.50
2023-05-20T19:57:29.552Z,65.40
2023-05-20T20:00:00.558Z,65.40
2023-05-20T20:02:28.694Z,65.50
2023-05-20T20:04:56.893Z,65.60
2023-05-20T20:07:25.943Z,65.60
2023-05-20T20:09:56.829Z,65.80
2023-05-20T20:12:25.087Z,65.90
2023-05-20T20:14:53.365Z,65.70
2023-05-20T20:17:23.428Z,65.70
2023-05-20T20:19:53.957Z,65.70
2023-05-20T20:22:22.381Z,65.80
2023-05-20T20:24:51.002Z,65.80
2023-05-20T20:27:23.839Z,65.90
2023-05-20T20:29:52.736Z,66.00
2023-05-20T20:32:21.204Z,66.00
2023-05-20T20:34:49.594Z,66.10
2023-05-20T20:37:17.892Z,66.20
2023-05-20T20:39:46.807Z,66.20
2023-05-20T20:42:14.938Z,66.40
2023-05-20T20:44:48.427Z,66.60
2023-05-20T20:47:16.877Z,66.70
2023-05-20T20:49:45.007Z,66.60
2023-05-20T20:52:13.150Z,66.60
2023-05-20T20:54:43.334Z,66.70
2023-05-20T20:57:13.923Z,67.50
2023-05-20T20:59:50.193Z,66.90
2023-05-20T21:02:20.793Z,66.90
2023-05-20T21:04:48.907Z,67.20
2023-05-20T21:07:18.297Z,67.20
2023-05-20T21:09:46.656Z,67.20
2023-05-20T21:12:14.773Z,67.40
2023-05-20T21:14:44.268Z,67.50
2023-05-20T21:17:12.431Z,67.60
2023-05-20T21:19:42.015Z,67.70
2023-05-20T21:22:10.096Z,67.70
2023-05-20T21:24:38.221Z,67.50
2023-05-20T21:27:06.817Z,67.70
2023-05-20T21:29:35.277Z,67.70
2023-05-20T21:32:03.378Z,67.80
2023-05-20T21:34:31.617Z,68.10
2023-05-20T21:37:01.101Z,68.00
2023-05-20T21:39:29.173Z,68.30
2023-05-20T21:41:57.236Z,68.30
2023-05-20T21:44:25.453Z,68.30
2023-05-20T21:46:53.644Z,68.60
2023-05-20T21:49:21.771Z,68.70
2023-05-20T21:51:50.171Z,68.80
2023-05-20T21:54:19.624Z,68.90
2023-05-20T21:56:47.786Z,69.20
2023-05-20T21:59:15.887Z,69.10
2023-05-20T22:01:45.099Z,69.10
2023-05-20T22:04:13.332Z,69.20
2023-05-20T22:06:41.672Z,69.40
2023-05-20T22:09:10.069Z,69.50
2023-05-20T22:11:39.552Z,69.50
2023-05-20T22:14:07.697Z,69.80
2023-05-20T22:16:36.063Z,69.90
2023-05-20T22:19:04.255Z,70.00
2023-05-20T22:21:39.671Z,70.10
2023-05-20T22:24:16.078Z,70.20
2023-05-20T22:26:45.748Z,70.30
2023-05-20T22:29:13.930Z,70.50
2023-05-20T22:31:42.063Z,70.50
2023-05-20T22:34:10.246Z,70.50
2023-05-20T22:36:39.363Z,70.60
2023-05-20T22:39:07.555Z,70.70
2023-05-20T22:41:35.627Z,70.90
2023-05-20T22:44:05.430Z,71.00
2023-05-20T22:46:33.557Z,71.20
2023-05-20T22:49:01.808Z,71.00
2023-05-20T22:51:31.272Z,71.10
2023-05-20T22:53:59.351Z,71.20
2023-05-20T22:56:27.433Z,71.30
2023-05-20T22:58:55.510Z,71.40
2023-05-20T23:01:25.023Z,71.50
2023-05-20T23:03:53.689Z,71.70
2023-05-20T23:06:22.979Z,71.60
2023-05-20T23:08:51.167Z,71.80
2023-05-20T23:11:19.565Z,71.80
2023-05-20T23:13:47.657Z,72.00
2023-05-20T23:16:17.651Z,72.00
2023-05-20T23:18:47.575Z,72.00
2023-05-20T23:21:15.956Z,72.20
2023-05-20T23:23:44.067Z,72.00
2023-05-20T23:26:12.287Z,72.10
2023-05-20T23:28:40.858Z,72.20
2023-05-20T23:31:09.263Z,72.20
2023-05-20T23:33:37.477Z,72.30
2023-05-20T23:36:09.252Z,72.40
2023-05-20T23:38:37.450Z,72.70
2023-05-20T23:41:05.996Z,72.50
2023-05-20T23:43:34.062Z,72.50
2023-05-20T23:46:02.269Z,72.60
2023-05-20T23:48:30.490Z,72.50
2023-05-20T23:50:58.629Z,72.50
2023-05-20T23:53:28.076Z,72.50
2023-05-20T23:55:56.297Z,72.70
2023-05-20T23:58:24.619Z,72.60
